createdAt,value
2017-01-25T00:00:07.992Z,1025.75
2017-01-25T00:01:07.980Z,1025.76
2017-01-25T00:02:07.993Z,1025.79
2017-01-25T00:03:08.012Z,1025.78
2017-01-25T00:04:08.025Z,1025.82
2017-01-25T00:05:08.040Z,1025.82
2017-01-25T00:06:08.056Z,1025.78
2017-01-25T00:07:08.071Z,1025.7
2017-01-25T00:08:08.086Z,1025.71
2017-01-25T00:09:08.100Z,1025.75
2017-01-25T00:10:08.117Z,1025.79
2017-01-25T00:11:08.132Z,1025.82
2017-01-25T00:12:08.149Z,1025.86
2017-01-25T00:13:08.163Z,1025.83
2017-01-25T00:15:08.195Z,1025.8
2017-01-25T00:16:08.209Z,1025.84
2017-01-25T00:17:08.225Z,1025.87
2017-01-25T00:18:08.241Z,1025.88
2017-01-25T00:19:08.256Z,1025.94
2017-01-25T00:20:08.271Z,1025.94
2017-01-25T00:21:08.285Z,1025.94
2017-01-25T00:22:08.302Z,1025.94
2017-01-25T00:23:08.315Z,1025.93
2017-01-25T00:24:08.331Z,1025.96
2017-01-25T00:25:08.347Z,1025.94
2017-01-25T00:26:08.363Z,1025.89
2017-01-25T00:27:08.378Z,1025.89
2017-01-25T00:28:08.393Z,1025.87
2017-01-25T00:29:08.408Z,1025.9
2017-01-25T00:30:08.424Z,1025.85
2017-01-25T00:31:08.443Z,1025.86
2017-01-25T00:32:08.455Z,1025.82
2017-01-25T00:33:08.470Z,1025.8
2017-01-25T00:34:08.485Z,1025.77
2017-01-25T00:35:08.500Z,1025.83
2017-01-25T00:36:08.517Z,1025.79
2017-01-25T00:37:08.532Z,1025.86
2017-01-25T00:38:08.546Z,1025.87
2017-01-25T00:39:08.562Z,1025.86
2017-01-25T00:40:08.577Z,1025.82
2017-01-25T00:41:08.593Z,1025.78
2017-01-25T00:42:08.608Z,1025.8
2017-01-25T00:43:08.623Z,1025.81
2017-01-25T00:44:08.638Z,1025.84
2017-01-25T00:45:08.653Z,1025.89
2017-01-25T00:47:08.684Z,1025.9
2017-01-25T00:48:08.700Z,1025.84
2017-01-25T00:49:08.715Z,1025.8
2017-01-25T00:50:08.729Z,1025.76
2017-01-25T00:51:08.745Z,1025.79
2017-01-25T00:52:08.761Z,1025.77
2017-01-25T00:53:08.776Z,1025.76
2017-01-25T00:54:08.792Z,1025.78
2017-01-25T00:55:08.806Z,1025.79
2017-01-25T00:56:08.824Z,1025.8
2017-01-25T00:57:08.837Z,1025.84
2017-01-25T00:58:08.853Z,1025.8
2017-01-25T00:59:08.869Z,1025.81
2017-01-25T01:00:08.883Z,1025.82
2017-01-25T01:01:08.899Z,1025.87
2017-01-25T01:03:08.930Z,1025.87
2017-01-25T01:04:08.944Z,1025.84
2017-01-25T01:05:08.960Z,1025.87
2017-01-25T01:06:08.975Z,1025.85
2017-01-25T01:07:08.990Z,1025.87
2017-01-25T01:08:09.006Z,1025.88
2017-01-25T01:09:09.021Z,1025.88
2017-01-25T01:10:09.037Z,1025.87
2017-01-25T01:11:09.051Z,1025.87
2017-01-25T01:12:09.066Z,1025.84
2017-01-25T01:13:09.082Z,1025.83
2017-01-25T01:14:09.097Z,1025.85
2017-01-25T01:15:09.112Z,1025.86
2017-01-25T01:16:09.129Z,1025.85
2017-01-25T01:17:09.143Z,1025.85
2017-01-25T01:19:09.173Z,1025.84
2017-01-25T01:20:09.187Z,1025.83
2017-01-25T01:21:09.204Z,1025.84
2017-01-25T01:22:09.218Z,1025.84
2017-01-25T01:23:09.233Z,1025.87
2017-01-25T01:24:09.248Z,1025.88
2017-01-25T01:25:09.264Z,1025.89
2017-01-25T01:26:09.279Z,1025.87
2017-01-25T01:27:09.294Z,1025.87
2017-01-25T01:28:09.309Z,1025.87
2017-01-25T01:29:09.332Z,1025.86
2017-01-25T01:30:09.340Z,1025.9
2017-01-25T01:31:09.355Z,1025.9
2017-01-25T01:32:09.371Z,1025.92
2017-01-25T01:33:09.385Z,1025.92
2017-01-25T01:35:09.416Z,1025.89
2017-01-25T01:36:09.432Z,1025.92
2017-01-25T01:37:09.445Z,1025.92
2017-01-25T01:38:09.461Z,1025.92
2017-01-25T01:39:09.477Z,1025.92
2017-01-25T01:40:09.491Z,1025.93
2017-01-25T01:41:09.506Z,1025.91
2017-01-25T01:42:09.522Z,1025.92
2017-01-25T01:43:09.554Z,1025.92
2017-01-25T01:44:09.551Z,1025.95
2017-01-25T01:45:09.573Z,1025.91
2017-01-25T01:46:09.582Z,1025.91
2017-01-25T01:47:09.598Z,1025.92
2017-01-25T01:48:09.614Z,1025.89
2017-01-25T01:50:09.648Z,1025.86
2017-01-25T01:51:09.658Z,1025.85
2017-01-25T01:52:09.673Z,1025.78
2017-01-25T01:53:09.689Z,1025.8
2017-01-25T01:54:09.704Z,1025.83
2017-01-25T01:55:09.719Z,1025.85
2017-01-25T01:56:09.735Z,1025.87
2017-01-25T01:57:09.752Z,1025.93
2017-01-25T01:58:09.783Z,1025.94
2017-01-25T01:59:09.802Z,1025.95
2017-01-25T02:00:09.795Z,1025.93
2017-01-25T02:01:09.810Z,1025.95
2017-01-25T02:02:09.824Z,1025.93
2017-01-25T02:03:09.840Z,1025.91
2017-01-25T02:04:09.855Z,1025.93
2017-01-25T02:05:09.871Z,1025.92
2017-01-25T02:06:09.885Z,1025.97
2017-01-25T02:07:09.901Z,1025.94
2017-01-25T02:08:09.915Z,1025.94
2017-01-25T02:09:09.932Z,1025.91
2017-01-25T02:10:09.947Z,1025.92
2017-01-25T02:11:09.962Z,1025.94
2017-01-25T02:12:09.977Z,1025.96
2017-01-25T02:13:09.991Z,1025.95
2017-01-25T02:14:10.012Z,1025.94
2017-01-25T02:15:10.022Z,1025.91
2017-01-25T02:16:10.038Z,1025.9
2017-01-25T02:17:10.051Z,1025.91
2017-01-25T02:18:10.069Z,1025.92
2017-01-25T02:19:10.082Z,1025.89
2017-01-25T02:20:10.097Z,1025.88
2017-01-25T02:22:10.128Z,1025.86
2017-01-25T02:23:10.143Z,1025.86
2017-01-25T02:24:10.158Z,1025.83
2017-01-25T02:25:10.174Z,1025.84
2017-01-25T02:26:10.190Z,1025.83
2017-01-25T02:27:10.204Z,1025.85
2017-01-25T02:28:10.219Z,1025.8
2017-01-25T02:29:10.234Z,1025.79
2017-01-25T02:30:10.250Z,1025.83
2017-01-25T02:31:10.267Z,1025.81
2017-01-25T02:32:10.280Z,1025.83
2017-01-25T02:33:10.296Z,1025.81
2017-01-25T02:34:10.316Z,1025.82
2017-01-25T02:35:10.325Z,1025.81
2017-01-25T02:36:10.341Z,1025.81
2017-01-25T02:38:10.372Z,1025.77
2017-01-25T02:39:10.386Z,1025.83
2017-01-25T02:40:10.401Z,1025.8
2017-01-25T02:41:10.417Z,1025.8
2017-01-25T02:42:10.432Z,1025.8
2017-01-25T02:43:10.447Z,1025.82
2017-01-25T02:44:10.463Z,1025.81
2017-01-25T02:45:10.477Z,1025.79
2017-01-25T02:46:10.492Z,1025.82
2017-01-25T02:47:10.508Z,1025.78
2017-01-25T02:48:10.523Z,1025.76
2017-01-25T02:49:10.540Z,1025.79
2017-01-25T02:50:10.553Z,1025.8
2017-01-25T02:51:10.569Z,1025.78
2017-01-25T02:52:10.585Z,1025.77
2017-01-25T02:54:10.615Z,1025.71
2017-01-25T02:55:10.630Z,1025.73
2017-01-25T02:56:10.646Z,1025.71
2017-01-25T02:57:10.660Z,1025.77
2017-01-25T02:58:10.676Z,1025.81
2017-01-25T02:59:10.692Z,1025.8
2017-01-25T03:00:10.707Z,1025.79
2017-01-25T03:01:10.821Z,1025.79
2017-01-25T03:02:10.737Z,1025.79
2017-01-25T03:03:10.752Z,1025.77
2017-01-25T03:04:10.767Z,1025.83
2017-01-25T03:05:10.783Z,1025.82
2017-01-25T03:06:10.798Z,1025.84
2017-01-25T03:07:10.813Z,1025.85
2017-01-25T03:08:10.829Z,1025.85
2017-01-25T03:10:10.859Z,1025.87
2017-01-25T03:11:10.876Z,1025.87
2017-01-25T03:12:10.890Z,1025.82
2017-01-25T03:13:10.905Z,1025.83
2017-01-25T03:14:10.921Z,1025.82
2017-01-25T03:15:10.936Z,1025.8
2017-01-25T03:16:10.951Z,1025.86
2017-01-25T03:17:10.967Z,1025.86
2017-01-25T03:18:10.982Z,1025.88
2017-01-25T03:19:10.996Z,1025.92
2017-01-25T03:20:11.012Z,1025.9
2017-01-25T03:21:11.027Z,1025.92
2017-01-25T03:22:11.044Z,1025.92
2017-01-25T03:23:11.059Z,1025.96
2017-01-25T03:25:11.092Z,1025.94
2017-01-25T03:26:11.110Z,1025.95
2017-01-25T03:27:11.120Z,1025.97
2017-01-25T03:28:11.136Z,1025.97
2017-01-25T03:29:11.151Z,1025.92
2017-01-25T03:30:11.166Z,1025.97
2017-01-25T03:31:11.182Z,1025.99
2017-01-25T03:32:11.198Z,1025.99
2017-01-25T03:33:11.215Z,1026.02
2017-01-25T03:34:11.227Z,1026.04
2017-01-25T03:35:11.243Z,1026.03
2017-01-25T03:36:11.259Z,1026.03
2017-01-25T03:37:11.274Z,1026.04
2017-01-25T03:38:11.290Z,1026.11
2017-01-25T03:39:11.311Z,1026.04
2017-01-25T03:40:11.321Z,1026.06
2017-01-25T03:41:11.335Z,1026.06
2017-01-25T03:42:11.352Z,1026.06
2017-01-25T03:43:11.367Z,1026.05
2017-01-25T03:44:11.382Z,1026.04
2017-01-25T03:45:11.397Z,1026.08
2017-01-25T03:46:11.413Z,1026.13
2017-01-25T03:47:11.429Z,1026.1
2017-01-25T03:48:11.443Z,1026.09
2017-01-25T03:49:11.459Z,1026.12
2017-01-25T03:50:11.475Z,1026.15
2017-01-25T03:51:11.490Z,1026.14
2017-01-25T03:52:11.506Z,1026.17
2017-01-25T03:53:11.520Z,1026.17
2017-01-25T03:54:11.537Z,1026.15
2017-01-25T03:55:11.552Z,1026.15
2017-01-25T03:57:11.583Z,1026.16
2017-01-25T03:58:11.599Z,1026.14
2017-01-25T03:59:11.614Z,1026.12
2017-01-25T04:00:11.630Z,1026.09
2017-01-25T04:01:11.644Z,1026.1
2017-01-25T04:02:11.660Z,1026.16
2017-01-25T04:03:11.675Z,1026.12
2017-01-25T04:04:11.690Z,1026.16
2017-01-25T04:05:11.707Z,1026.17
2017-01-25T04:06:11.721Z,1026.18
2017-01-25T04:07:11.737Z,1026.19
2017-01-25T04:08:11.755Z,1026.17
2017-01-25T04:09:11.768Z,1026.22
2017-01-25T04:10:11.782Z,1026.19
2017-01-25T04:11:11.797Z,1026.18
2017-01-25T04:13:11.831Z,1026.2
2017-01-25T04:14:11.844Z,1026.2
2017-01-25T04:15:11.859Z,1026.22
2017-01-25T04:16:11.875Z,1026.27
2017-01-25T04:17:11.890Z,1026.26
2017-01-25T04:18:11.904Z,1026.26
2017-01-25T04:19:11.920Z,1026.28
2017-01-25T04:20:11.936Z,1026.29
2017-01-25T04:21:11.952Z,1026.29
2017-01-25T04:22:11.967Z,1026.3
2017-01-25T04:23:11.981Z,1026.3
2017-01-25T04:24:11.998Z,1026.3
2017-01-25T04:25:12.011Z,1026.3
2017-01-25T04:26:12.027Z,1026.32
2017-01-25T04:27:12.042Z,1026.27
2017-01-25T04:29:12.072Z,1026.28
2017-01-25T04:30:12.088Z,1026.26
2017-01-25T04:31:12.104Z,1026.26
2017-01-25T04:32:12.118Z,1026.28
2017-01-25T04:33:12.133Z,1026.26
2017-01-25T04:34:12.159Z,1026.3
2017-01-25T04:35:12.164Z,1026.3
2017-01-25T04:36:12.178Z,1026.3
2017-01-25T04:37:12.194Z,1026.34
2017-01-25T04:38:12.209Z,1026.34
2017-01-25T04:39:12.224Z,1026.32
2017-01-25T04:40:12.240Z,1026.29
2017-01-25T04:41:12.254Z,1026.29
2017-01-25T04:42:12.270Z,1026.28
2017-01-25T04:43:12.285Z,1026.28
2017-01-25T04:45:12.316Z,1026.26
2017-01-25T04:46:12.331Z,1026.24
2017-01-25T04:47:12.344Z,1026.26
2017-01-25T04:48:12.360Z,1026.26
2017-01-25T04:49:12.376Z,1026.29
2017-01-25T04:50:12.390Z,1026.3
2017-01-25T04:51:12.406Z,1026.31
2017-01-25T04:52:12.422Z,1026.27
2017-01-25T04:53:12.437Z,1026.32
2017-01-25T04:54:12.452Z,1026.31
2017-01-25T04:55:12.467Z,1026.38
2017-01-25T04:56:12.482Z,1026.37
2017-01-25T04:57:12.498Z,1026.35
2017-01-25T04:58:12.513Z,1026.32
2017-01-25T05:00:12.545Z,1026.42
2017-01-25T05:01:12.559Z,1026.39
2017-01-25T05:02:12.575Z,1026.38
2017-01-25T05:03:12.590Z,1026.39
2017-01-25T05:04:12.605Z,1026.41
2017-01-25T05:05:12.621Z,1026.42
2017-01-25T05:06:12.636Z,1026.39
2017-01-25T05:07:12.662Z,1026.41
2017-01-25T05:08:12.666Z,1026.43
2017-01-25T05:09:12.682Z,1026.4
2017-01-25T05:10:12.697Z,1026.42
2017-01-25T05:11:12.733Z,1026.41
2017-01-25T05:12:12.727Z,1026.39
2017-01-25T05:13:12.743Z,1026.38
2017-01-25T05:14:12.758Z,1026.41
2017-01-25T05:15:12.774Z,1026.42
2017-01-25T05:16:12.788Z,1026.39
2017-01-25T05:17:12.804Z,1026.42
2017-01-25T05:18:12.819Z,1026.42
2017-01-25T05:19:12.835Z,1026.44
2017-01-25T05:20:12.851Z,1026.44
2017-01-25T05:21:12.865Z,1026.43
2017-01-25T05:22:12.881Z,1026.43
2017-01-25T05:23:12.896Z,1026.42
2017-01-25T05:24:12.911Z,1026.41
2017-01-25T05:25:12.927Z,1026.41
2017-01-25T05:26:12.943Z,1026.39
2017-01-25T05:27:12.959Z,1026.38
2017-01-25T05:28:12.972Z,1026.39
2017-01-25T05:29:12.990Z,1026.35
2017-01-25T05:30:13.003Z,1026.39
2017-01-25T05:32:13.034Z,1026.38
2017-01-25T05:33:13.049Z,1026.39
2017-01-25T05:34:13.064Z,1026.41
2017-01-25T05:35:13.082Z,1026.42
2017-01-25T05:36:13.095Z,1026.39
2017-01-25T05:37:13.110Z,1026.36
2017-01-25T05:38:13.125Z,1026.34
2017-01-25T05:39:13.140Z,1026.35
2017-01-25T05:40:13.156Z,1026.37
2017-01-25T05:41:13.171Z,1026.35
2017-01-25T05:42:13.185Z,1026.31
2017-01-25T05:43:13.202Z,1026.31
2017-01-25T05:44:13.219Z,1026.29
2017-01-25T05:45:13.231Z,1026.33
2017-01-25T05:46:13.247Z,1026.32
2017-01-25T05:48:13.279Z,1026.33
2017-01-25T05:49:13.293Z,1026.33
2017-01-25T05:50:13.308Z,1026.39
2017-01-25T05:51:13.324Z,1026.36
2017-01-25T05:52:13.339Z,1026.35
2017-01-25T05:53:13.354Z,1026.32
2017-01-25T05:54:13.370Z,1026.36
2017-01-25T05:55:13.385Z,1026.38
2017-01-25T05:56:13.400Z,1026.44
2017-01-25T05:57:13.416Z,1026.4
2017-01-25T05:58:13.434Z,1026.41
2017-01-25T05:59:13.447Z,1026.39
2017-01-25T06:00:13.461Z,1026.42
2017-01-25T06:01:13.477Z,1026.39
2017-01-25T06:02:13.492Z,1026.39
2017-01-25T06:04:13.522Z,1026.44
2017-01-25T06:05:13.538Z,1026.47
2017-01-25T06:06:13.553Z,1026.44
2017-01-25T06:07:13.568Z,1026.44
2017-01-25T06:08:13.583Z,1026.43
2017-01-25T06:09:13.598Z,1026.4
2017-01-25T06:10:13.615Z,1026.41
2017-01-25T06:11:13.629Z,1026.44
2017-01-25T06:12:13.644Z,1026.46
2017-01-25T06:13:13.660Z,1026.46
2017-01-25T06:14:13.675Z,1026.47
2017-01-25T06:15:13.690Z,1026.46
2017-01-25T06:16:13.707Z,1026.5
2017-01-25T06:17:13.721Z,1026.5
2017-01-25T06:18:13.736Z,1026.51
2017-01-25T06:20:13.768Z,1026.5
2017-01-25T06:21:13.783Z,1026.49
2017-01-25T06:22:13.797Z,1026.55
2017-01-25T06:23:13.813Z,1026.55
2017-01-25T06:24:13.828Z,1026.58
2017-01-25T06:25:13.843Z,1026.6
2017-01-25T06:26:13.857Z,1026.58
2017-01-25T06:27:13.875Z,1026.56
2017-01-25T06:28:13.889Z,1026.56
2017-01-25T06:29:13.904Z,1026.56
2017-01-25T06:30:13.919Z,1026.59
2017-01-25T06:31:13.935Z,1026.63
2017-01-25T06:32:13.954Z,1026.61
2017-01-25T06:33:13.967Z,1026.63
2017-01-25T06:35:13.997Z,1026.63
2017-01-25T06:36:14.011Z,1026.61
2017-01-25T06:37:14.027Z,1026.6
2017-01-25T06:38:14.043Z,1026.61
2017-01-25T06:39:14.058Z,1026.59
2017-01-25T06:40:14.075Z,1026.59
2017-01-25T06:41:14.088Z,1026.61
2017-01-25T06:42:14.104Z,1026.58
2017-01-25T06:43:14.118Z,1026.51
2017-01-25T06:44:14.133Z,1026.51
2017-01-25T06:45:14.149Z,1026.5
2017-01-25T06:46:14.164Z,1026.54
2017-01-25T06:47:14.178Z,1026.57
2017-01-25T06:48:14.195Z,1026.66
2017-01-25T06:49:14.210Z,1026.65
2017-01-25T06:50:14.225Z,1026.63
2017-01-25T06:51:14.239Z,1026.66
2017-01-25T06:52:14.256Z,1026.6
2017-01-25T06:53:14.271Z,1026.6
2017-01-25T06:54:14.286Z,1026.65
2017-01-25T06:55:14.301Z,1026.68
2017-01-25T06:56:14.317Z,1026.67
2017-01-25T06:57:14.332Z,1026.65
2017-01-25T06:58:14.347Z,1026.65
2017-01-25T06:59:14.362Z,1026.67
2017-01-25T07:00:14.378Z,1026.65
2017-01-25T07:01:14.393Z,1026.64
2017-01-25T07:02:14.429Z,1026.67
2017-01-25T07:03:14.423Z,1026.67
2017-01-25T07:04:14.439Z,1026.72
2017-01-25T07:05:14.453Z,1026.76
2017-01-25T07:07:14.484Z,1026.81
2017-01-25T07:08:14.500Z,1026.84
2017-01-25T07:09:14.514Z,1026.79
2017-01-25T07:10:14.530Z,1026.78
2017-01-25T07:11:14.546Z,1026.78
2017-01-25T07:12:14.560Z,1026.85
2017-01-25T07:13:14.581Z,1026.86
2017-01-25T07:14:14.590Z,1026.85
2017-01-25T07:15:14.605Z,1026.86
2017-01-25T07:16:14.619Z,1026.87
2017-01-25T07:17:14.636Z,1026.88
2017-01-25T07:18:14.651Z,1026.87
2017-01-25T07:19:14.667Z,1026.87
2017-01-25T07:20:14.681Z,1026.87
2017-01-25T07:21:14.695Z,1026.86
2017-01-25T07:23:14.727Z,1026.84
2017-01-25T07:24:14.741Z,1026.86
2017-01-25T07:25:14.758Z,1026.88
2017-01-25T07:26:14.772Z,1026.83
2017-01-25T07:27:14.786Z,1026.83
2017-01-25T07:28:14.803Z,1026.87
2017-01-25T07:29:14.817Z,1026.86
2017-01-25T07:30:14.832Z,1026.88
2017-01-25T07:31:14.847Z,1026.85
2017-01-25T07:32:14.864Z,1026.86
2017-01-25T07:33:14.878Z,1026.89
2017-01-25T07:34:14.893Z,1026.91
2017-01-25T07:35:14.908Z,1026.91
2017-01-25T07:36:14.924Z,1026.91
2017-01-25T07:37:14.939Z,1026.93
2017-01-25T07:39:14.970Z,1026.95
2017-01-25T07:40:14.985Z,1026.99
2017-01-25T07:41:15.000Z,1027.05
2017-01-25T07:42:15.015Z,1027.05
2017-01-25T07:43:15.033Z,1027.05
2017-01-25T07:44:15.044Z,1027.02
2017-01-25T07:45:15.060Z,1026.98
2017-01-25T07:46:15.075Z,1027.01
2017-01-25T07:47:15.090Z,1027.04
2017-01-25T07:48:15.105Z,1027
2017-01-25T07:49:15.120Z,1026.97
2017-01-25T07:50:15.135Z,1026.97
2017-01-25T07:51:15.151Z,1027.01
2017-01-25T07:52:15.167Z,1026.99
2017-01-25T07:53:15.181Z,1027.02
2017-01-25T07:55:15.211Z,1027.03
2017-01-25T07:56:15.228Z,1027
2017-01-25T07:57:15.241Z,1027.01
2017-01-25T07:58:15.257Z,1027.02
2017-01-25T07:59:15.272Z,1026.99
2017-01-25T08:00:15.287Z,1026.97
2017-01-25T08:01:15.303Z,1027.03
2017-01-25T08:02:15.318Z,1027.01
2017-01-25T08:03:15.333Z,1027.02
2017-01-25T08:04:15.347Z,1027.03
2017-01-25T08:05:15.365Z,1027.03
2017-01-25T08:06:15.378Z,1027.07
2017-01-25T08:07:15.394Z,1027.05
2017-01-25T08:08:15.409Z,1027.13
2017-01-25T08:10:15.440Z,1027.1
2017-01-25T08:11:15.455Z,1027.1
2017-01-25T08:12:15.470Z,1027.1
2017-01-25T08:13:15.486Z,1027.08
2017-01-25T08:14:15.500Z,1027.04
2017-01-25T08:15:15.515Z,1027.06
2017-01-25T08:16:15.530Z,1027.1
2017-01-25T08:17:15.545Z,1027.06
2017-01-25T08:18:15.561Z,1027.08
2017-01-25T08:19:15.576Z,1027.15
2017-01-25T08:20:15.592Z,1027.16
2017-01-25T08:21:15.607Z,1027.2
2017-01-25T08:22:15.622Z,1027.22
2017-01-25T08:23:15.637Z,1027.24
2017-01-25T08:24:15.652Z,1027.26
2017-01-25T08:25:15.669Z,1027.2
2017-01-25T08:26:15.682Z,1027.28
2017-01-25T08:27:15.698Z,1027.26
2017-01-25T08:28:15.713Z,1027.3
2017-01-25T08:29:15.727Z,1027.28
2017-01-25T08:30:15.743Z,1027.27
2017-01-25T08:31:15.758Z,1027.28
2017-01-25T08:32:15.774Z,1027.25
2017-01-25T08:33:15.789Z,1027.3
2017-01-25T08:34:15.804Z,1027.29
2017-01-25T08:35:15.819Z,1027.27
2017-01-25T08:36:15.836Z,1027.29
2017-01-25T08:37:15.849Z,1027.28
2017-01-25T08:38:15.865Z,1027.33
2017-01-25T08:39:15.880Z,1027.32
2017-01-25T08:40:15.895Z,1027.31
2017-01-25T08:42:15.926Z,1027.32
2017-01-25T08:43:15.942Z,1027.28
2017-01-25T08:44:15.957Z,1027.29
2017-01-25T08:45:15.971Z,1027.26
2017-01-25T08:46:15.988Z,1027.27
2017-01-25T08:47:16.003Z,1027.24
2017-01-25T08:48:16.017Z,1027.29
2017-01-25T08:49:16.033Z,1027.31
2017-01-25T08:50:16.049Z,1027.32
2017-01-25T08:51:16.063Z,1027.35
2017-01-25T08:52:16.079Z,1027.37
2017-01-25T08:53:16.095Z,1027.39
2017-01-25T08:54:16.109Z,1027.38
2017-01-25T08:55:16.125Z,1027.35
2017-01-25T08:56:16.140Z,1027.34
2017-01-25T08:58:16.171Z,1027.36
2017-01-25T08:59:16.189Z,1027.35
2017-01-25T09:00:16.202Z,1027.33
2017-01-25T09:01:16.218Z,1027.39
2017-01-25T09:02:16.232Z,1027.35
2017-01-25T09:03:16.248Z,1027.45
2017-01-25T09:04:16.264Z,1027.42
2017-01-25T09:05:16.279Z,1027.4
2017-01-25T09:06:16.293Z,1027.39
2017-01-25T09:07:16.309Z,1027.4
2017-01-25T09:08:16.325Z,1027.38
2017-01-25T09:09:16.343Z,1027.39
2017-01-25T09:10:16.355Z,1027.36
2017-01-25T09:11:16.371Z,1027.36
2017-01-25T09:12:16.386Z,1027.35
2017-01-25T09:14:16.417Z,1027.39
2017-01-25T09:15:16.434Z,1027.41
2017-01-25T09:16:16.449Z,1027.41
2017-01-25T09:17:16.466Z,1027.44
2017-01-25T09:18:16.480Z,1027.46
2017-01-25T09:19:16.496Z,1027.49
2017-01-25T09:20:16.511Z,1027.53
2017-01-25T09:21:16.527Z,1027.54
2017-01-25T09:22:16.542Z,1027.52
2017-01-25T09:23:16.558Z,1027.49
2017-01-25T09:24:16.574Z,1027.45
2017-01-25T09:25:16.589Z,1027.47
2017-01-25T09:26:16.605Z,1027.49
2017-01-25T09:27:16.620Z,1027.51
2017-01-25T09:28:16.635Z,1027.55
2017-01-25T09:30:16.666Z,1027.57
2017-01-25T09:31:16.685Z,1027.6
2017-01-25T09:32:16.697Z,1027.62
2017-01-25T09:33:16.713Z,1027.64
2017-01-25T09:34:16.728Z,1027.61
2017-01-25T09:35:16.744Z,1027.6
2017-01-25T09:36:16.760Z,1027.61
2017-01-25T09:37:16.776Z,1027.66
2017-01-25T09:38:16.792Z,1027.65
2017-01-25T09:39:16.807Z,1027.67
2017-01-25T09:40:16.825Z,1027.67
2017-01-25T09:41:16.839Z,1027.68
2017-01-25T09:42:16.855Z,1027.71
2017-01-25T09:43:16.871Z,1027.67
2017-01-25T09:45:16.902Z,1027.66
2017-01-25T09:46:16.918Z,1027.7
2017-01-25T09:47:16.933Z,1027.67
2017-01-25T09:48:16.950Z,1027.7
2017-01-25T09:49:16.966Z,1027.69
2017-01-25T09:50:16.980Z,1027.63
2017-01-25T09:51:16.996Z,1027.68
2017-01-25T09:52:17.013Z,1027.7
2017-01-25T09:53:17.027Z,1027.68
2017-01-25T09:54:17.043Z,1027.68
2017-01-25T09:55:17.059Z,1027.67
2017-01-25T09:56:17.076Z,1027.68
2017-01-25T09:57:17.091Z,1027.69
2017-01-25T09:58:17.107Z,1027.66
2017-01-25T09:59:17.122Z,1027.66
2017-01-25T10:00:17.138Z,1027.65
2017-01-25T10:01:17.153Z,1027.7
2017-01-25T10:02:17.168Z,1027.69
2017-01-25T10:03:17.185Z,1027.71
2017-01-25T10:04:17.200Z,1027.62
2017-01-25T10:05:17.217Z,1027.61
2017-01-25T10:06:17.232Z,1027.62
2017-01-25T10:07:17.248Z,1027.65
2017-01-25T10:08:17.263Z,1027.64
2017-01-25T10:09:17.279Z,1027.64
2017-01-25T10:10:17.295Z,1027.62
2017-01-25T10:11:17.311Z,1027.63
2017-01-25T10:12:17.326Z,1027.63
2017-01-25T10:13:17.342Z,1027.65
2017-01-25T10:14:17.358Z,1027.62
2017-01-25T10:15:17.373Z,1027.6
2017-01-25T10:17:17.405Z,1027.59
2017-01-25T10:18:17.420Z,1027.58
2017-01-25T10:19:17.457Z,1027.57
2017-01-25T10:20:17.454Z,1027.58
2017-01-25T10:21:17.468Z,1027.57
2017-01-25T10:22:17.483Z,1027.58
2017-01-25T10:23:17.499Z,1027.58
2017-01-25T10:24:17.515Z,1027.59
2017-01-25T10:25:17.531Z,1027.58
2017-01-25T10:26:17.545Z,1027.58
2017-01-25T10:27:17.561Z,1027.57
2017-01-25T10:28:17.578Z,1027.58
2017-01-25T10:29:17.594Z,1027.57
2017-01-25T10:30:17.608Z,1027.59
2017-01-25T10:31:17.625Z,1027.6
2017-01-25T10:33:17.657Z,1027.59
2017-01-25T10:34:17.672Z,1027.57
2017-01-25T10:35:17.688Z,1027.62
2017-01-25T10:36:17.704Z,1027.61
2017-01-25T10:37:17.719Z,1027.62
2017-01-25T10:38:17.734Z,1027.59
2017-01-25T10:39:17.751Z,1027.61
2017-01-25T10:40:17.766Z,1027.6
2017-01-25T10:41:17.782Z,1027.6
2017-01-25T10:42:17.797Z,1027.6
2017-01-25T10:43:17.813Z,1027.54
2017-01-25T10:44:17.831Z,1027.54
2017-01-25T10:45:17.845Z,1027.5
2017-01-25T10:46:17.861Z,1027.47
2017-01-25T10:47:17.877Z,1027.41
2017-01-25T10:49:17.913Z,1027.46
2017-01-25T10:50:17.924Z,1027.44
2017-01-25T10:51:17.939Z,1027.47
2017-01-25T10:52:17.954Z,1027.48
2017-01-25T10:53:17.970Z,1027.5
2017-01-25T10:54:17.989Z,1027.5
2017-01-25T10:55:18.002Z,1027.46
2017-01-25T10:56:18.017Z,1027.48
2017-01-25T10:57:18.033Z,1027.46
2017-01-25T10:58:18.050Z,1027.45
2017-01-25T10:59:18.065Z,1027.43
2017-01-25T11:00:18.081Z,1027.42
2017-01-25T11:01:18.097Z,1027.43
2017-01-25T11:02:18.113Z,1027.42
2017-01-25T11:03:18.129Z,1027.43
2017-01-25T11:05:18.161Z,1027.43
2017-01-25T11:06:18.176Z,1027.4
2017-01-25T11:07:18.193Z,1027.4
2017-01-25T11:08:18.208Z,1027.35
2017-01-25T11:09:18.225Z,1027.31
2017-01-25T11:10:18.284Z,1027.34
2017-01-25T11:11:18.256Z,1027.31
2017-01-25T11:12:18.272Z,1027.3
2017-01-25T11:13:18.289Z,1027.34
2017-01-25T11:14:18.307Z,1027.35
2017-01-25T11:15:18.325Z,1027.33
2017-01-25T11:16:18.336Z,1027.31
2017-01-25T11:17:18.403Z,1027.33
2017-01-25T11:18:18.369Z,1027.27
2017-01-25T11:20:18.402Z,1027.33
2017-01-25T11:21:18.421Z,1027.3
2017-01-25T11:22:18.433Z,1027.35
2017-01-25T11:23:18.450Z,1027.32
2017-01-25T11:24:18.466Z,1027.31
2017-01-25T11:25:18.480Z,1027.3
2017-01-25T11:26:18.498Z,1027.33
2017-01-25T11:27:18.514Z,1027.32
2017-01-25T11:28:18.529Z,1027.34
2017-01-25T11:29:18.546Z,1027.28
2017-01-25T11:30:18.563Z,1027.29
2017-01-25T11:31:18.578Z,1027.27
2017-01-25T11:32:18.594Z,1027.25
2017-01-25T11:33:18.612Z,1027.25
2017-01-25T11:34:18.626Z,1027.29
2017-01-25T11:35:18.643Z,1027.28
2017-01-25T11:36:18.660Z,1027.25
2017-01-25T11:37:18.674Z,1027.26
2017-01-25T11:38:18.691Z,1027.23
2017-01-25T11:39:18.708Z,1027.24
2017-01-25T11:40:18.723Z,1027.23
2017-01-25T11:41:18.739Z,1027.23
2017-01-25T11:42:18.756Z,1027.21
2017-01-25T11:43:18.771Z,1027.2
2017-01-25T11:44:18.788Z,1027.17
2017-01-25T11:45:18.804Z,1027.18
2017-01-25T11:46:18.820Z,1027.21
2017-01-25T11:47:18.836Z,1027.22
2017-01-25T11:48:18.853Z,1027.22
2017-01-25T11:49:18.869Z,1027.23
2017-01-25T11:50:18.885Z,1027.24
2017-01-25T11:52:18.917Z,1027.21
2017-01-25T11:53:18.933Z,1027.16
2017-01-25T11:54:18.949Z,1027.17
2017-01-25T11:55:18.966Z,1027.18
2017-01-25T11:56:18.982Z,1027.16
2017-01-25T11:57:18.997Z,1027.13
2017-01-25T11:58:19.013Z,1027.13
2017-01-25T11:59:19.029Z,1027.15
2017-01-25T12:00:19.050Z,1027.12
2017-01-25T12:01:19.061Z,1027.11
2017-01-25T12:02:19.077Z,1027.12
2017-01-25T12:03:19.094Z,1027.11
2017-01-25T12:04:19.110Z,1027.1
2017-01-25T12:05:19.127Z,1027.07
2017-01-25T12:06:19.142Z,1027.05
2017-01-25T12:08:19.175Z,1027.05
2017-01-25T12:09:19.189Z,1027.09
2017-01-25T12:10:19.207Z,1027.09
2017-01-25T12:11:19.226Z,1027.1
2017-01-25T12:12:19.238Z,1027.07
2017-01-25T12:13:19.255Z,1027.07
2017-01-25T12:14:19.271Z,1027.08
2017-01-25T12:15:19.288Z,1027.09
2017-01-25T12:16:19.303Z,1027.06
2017-01-25T12:17:19.320Z,1027.08
2017-01-25T12:18:19.337Z,1027.05
2017-01-25T12:19:19.352Z,1027.05
2017-01-25T12:20:19.367Z,1027.04
2017-01-25T12:21:19.383Z,1027.01
2017-01-25T12:22:19.401Z,1027.02
2017-01-25T12:24:19.431Z,1026.99
2017-01-25T12:25:19.448Z,1027.01
2017-01-25T12:26:19.464Z,1027
2017-01-25T12:27:19.480Z,1026.97
2017-01-25T12:28:19.496Z,1026.96
2017-01-25T12:29:19.512Z,1026.96
2017-01-25T12:30:19.529Z,1026.94
2017-01-25T12:31:19.544Z,1026.94
2017-01-25T12:32:19.560Z,1026.93
2017-01-25T12:33:19.577Z,1026.92
2017-01-25T12:34:19.598Z,1026.88
2017-01-25T12:35:19.609Z,1026.9
2017-01-25T12:36:19.626Z,1026.95
2017-01-25T12:37:19.642Z,1026.97
2017-01-25T12:38:19.657Z,1026.96
2017-01-25T12:40:19.689Z,1027.01
2017-01-25T12:41:19.709Z,1026.99
2017-01-25T12:42:19.721Z,1027
2017-01-25T12:43:19.738Z,1027.03
2017-01-25T12:44:19.754Z,1026.96
2017-01-25T12:45:19.770Z,1026.97
2017-01-25T12:46:19.786Z,1026.98
2017-01-25T12:47:19.802Z,1026.93
2017-01-25T12:48:19.818Z,1026.92